aviador You're here:

KMKO Decoded Metar

MUSKOGEE in OK, USA
Report Time2017-11-25 04:53:00
UTC Time2017-11-25 05:31:38
Flight Rules vfr VFR
Wind150° at 05 kt
W.Decomp.*RWY 13: 4.9 kt HW 1.2 kt RCW
RWY 18: 4.0 kt HW 2.9 kt LCW
RWY 22: 1.2 kt HW 4.9 kt LCW
W.Rank150° ranks 2
Current wind is below 150° avg. (7.2)
Visibility9999 m
Phenomena:N/A
Clouds:N/A
Expected CloudBase > 4,400 ft AGL from Temp-Dew spread
CeilingNone
Temp13°C (ISA -1)
Dew Point02°C (47% RH)
AAT9.5°C
QNH1011 hPa
Density Alt679 ft
Elevation607 ft
Report Wrong Elevation
Raw Report
KMKO 250453Z AUTO 15005KT 10SM CLR 13/02 A2986 RMK AO2 SLP109
T01330022 $=

Extra information for KMKO:More info

Metar Taf Metar & Taf Last 4 Metars F.Rules Stats Wind Profile Meteogram Temp Stats Airport Information Weather charts Add Link Nearby VenuesMetar ALERT Operation Metar Decoded Social comments

AIRNAV info for KMKO